sensor_id;sensor_type;location;lat;lon;timestamp;P1;durP1;ratioP1;P2;durP2;ratioP2
33794;SDS011;51430;52.242;21.118;2023-01-29T00:00:49;8.00;;;7.20;;
33794;SDS011;51430;52.242;21.118;2023-01-29T00:03:38;9.20;;;7.20;;
33794;SDS011;51430;52.242;21.118;2023-01-29T00:06:26;8.20;;;7.40;;
33794;SDS011;51430;52.242;21.118;2023-01-29T00:09:13;9.50;;;7.70;;
33794;SDS011;51430;52.242;21.118;2023-01-29T00:12:00;8.50;;;7.50;;
33794;SDS011;51430;52.242;21.118;2023-01-29T00:14:46;8.50;;;7.30;;
33794;SDS011;51430;52.242;21.118;2023-01-29T00:17:33;9.20;;;7.70;;
33794;SDS011;51430;52.242;21.118;2023-01-29T00:20:20;9.80;;;8.10;;
33794;SDS011;51430;52.242;21.118;2023-01-29T00:23:06;10.20;;;8.50;;
33794;SDS011;51430;52.242;21.118;2023-01-29T00:25:53;9.20;;;8.20;;
33794;SDS011;51430;52.242;21.118;2023-01-29T00:28:40;9.90;;;8.90;;
33794;SDS011;51430;52.242;21.118;2023-01-29T00:31:27;9.20;;;8.20;;
33794;SDS011;51430;52.242;21.118;2023-01-29T00:34:14;9.10;;;8.10;;
33794;SDS011;51430;52.242;21.118;2023-01-29T00:37:01;11.10;;;8.90;;
33794;SDS011;51430;52.242;21.118;2023-01-29T00:39:53;9.30;;;8.30;;
33794;SDS011;51430;52.242;21.118;2023-01-29T00:42:40;10.10;;;9.10;;
33794;SDS011;51430;52.242;21.118;2023-01-29T00:45:47;8.80;;;7.90;;
33794;SDS011;51430;52.242;21.118;2023-01-29T00:48:34;8.90;;;8.00;;
33794;SDS011;51430;52.242;21.118;2023-01-29T00:51:21;8.40;;;7.70;;
33794;SDS011;51430;52.242;21.118;2023-01-29T00:54:08;8.80;;;7.90;;
33794;SDS011;51430;52.242;21.118;2023-01-29T00:56:54;8.60;;;7.80;;
33794;SDS011;51430;52.242;21.118;2023-01-29T00:59:41;8.50;;;7.60;;
33794;SDS011;51430;52.242;21.118;2023-01-29T01:02:28;8.00;;;7.10;;
33794;SDS011;51430;52.242;21.118;2023-01-29T01:05:34;8.10;;;7.30;;
33794;SDS011;51430;52.242;21.118;2023-01-29T01:08:22;7.80;;;7.00;;
33794;SDS011;51430;52.242;21.118;2023-01-29T01:11:27;7.80;;;7.00;;
33794;SDS011;51430;52.242;21.118;2023-01-29T01:14:14;8.30;;;7.30;;
33794;SDS011;51430;52.242;21.118;2023-01-29T01:17:00;8.20;;;7.40;;
33794;SDS011;51430;52.242;21.118;2023-01-29T01:19:48;7.30;;;6.60;;
33794;SDS011;51430;52.242;21.118;2023-01-29T01:22:34;7.20;;;6.60;;
33794;SDS011;51430;52.242;21.118;2023-01-29T01:25:22;7.10;;;6.40;;
33794;SDS011;51430;52.242;21.118;2023-01-29T01:28:10;6.90;;;6.20;;
33794;SDS011;51430;52.242;21.118;2023-01-29T01:30:57;8.20;;;6.20;;
33794;SDS011;51430;52.242;21.118;2023-01-29T01:33:54;6.50;;;5.90;;
33794;SDS011;51430;52.242;21.118;2023-01-29T01:36:41;6.90;;;6.10;;
33794;SDS011;51430;52.242;21.118;2023-01-29T01:39:27;6.50;;;5.90;;
33794;SDS011;51430;52.242;21.118;2023-01-29T01:42:14;6.30;;;5.70;;
33794;SDS011;51430;52.242;21.118;2023-01-29T01:45:02;6.90;;;6.20;;
33794;SDS011;51430;52.242;21.118;2023-01-29T01:47:58;6.50;;;5.70;;
33794;SDS011;51430;52.242;21.118;2023-01-29T01:50:54;6.10;;;5.50;;
33794;SDS011;51430;52.242;21.118;2023-01-29T01:53:51;6.20;;;5.40;;
33794;SDS011;51430;52.242;21.118;2023-01-29T01:56:52;7.20;;;5.40;;
33794;SDS011;51430;52.242;21.118;2023-01-29T01:59:55;6.00;;;5.40;;
33794;SDS011;51430;52.242;21.118;2023-01-29T02:02:49;6.60;;;5.80;;
33794;SDS011;51430;52.242;21.118;2023-01-29T02:05:54;6.90;;;6.20;;
33794;SDS011;51430;52.242;21.118;2023-01-29T02:09:10;6.60;;;6.00;;
33794;SDS011;51430;52.242;21.118;2023-01-29T02:12:20;6.80;;;6.10;;
33794;SDS011;51430;52.242;21.118;2023-01-29T02:15:08;6.90;;;6.20;;
33794;SDS011;51430;52.242;21.118;2023-01-29T02:17:58;6.90;;;6.20;;
33794;SDS011;51430;52.242;21.118;2023-01-29T02:21:30;7.20;;;6.50;;
33794;SDS011;51430;52.242;21.118;2023-01-29T02:27:02;7.00;;;6.30;;
33794;SDS011;51430;52.242;21.118;2023-01-29T02:30:03;7.50;;;6.40;;
33794;SDS011;51430;52.242;21.118;2023-01-29T02:32:59;7.20;;;6.50;;
33794;SDS011;51430;52.242;21.118;2023-01-29T02:39:47;7.70;;;6.90;;
33794;SDS011;51430;52.242;21.118;2023-01-29T02:42:24;8.00;;;7.20;;
33794;SDS011;51430;52.242;21.118;2023-01-29T02:45:21;8.50;;;7.70;;
33794;SDS011;51430;52.242;21.118;2023-01-29T02:48:18;8.80;;;7.90;;
33794;SDS011;51430;52.242;21.118;2023-01-29T02:51:17;8.70;;;7.80;;
33794;SDS011;51430;52.242;21.118;2023-01-29T02:54:19;9.10;;;8.20;;
33794;SDS011;51430;52.242;21.118;2023-01-29T02:57:20;8.50;;;7.60;;
33794;SDS011;51430;52.242;21.118;2023-01-29T03:00:13;9.40;;;8.50;;
33794;SDS011;51430;52.242;21.118;2023-01-29T03:03:10;9.00;;;8.10;;
33794;SDS011;51430;52.242;21.118;2023-01-29T03:06:13;9.30;;;8.30;;
33794;SDS011;51430;52.242;21.118;2023-01-29T03:09:09;8.80;;;7.80;;
33794;SDS011;51430;52.242;21.118;2023-01-29T03:12:12;9.10;;;8.20;;
33794;SDS011;51430;52.242;21.118;2023-01-29T03:15:19;9.50;;;8.50;;
33794;SDS011;51430;52.242;21.118;2023-01-29T03:18:20;9.90;;;8.80;;
33794;SDS011;51430;52.242;21.118;2023-01-29T03:21:15;9.10;;;7.90;;
33794;SDS011;51430;52.242;21.118;2023-01-29T03:27:57;9.80;;;8.70;;
33794;SDS011;51430;52.242;21.118;2023-01-29T03:31:05;9.90;;;8.30;;
33794;SDS011;51430;52.242;21.118;2023-01-29T03:34:23;10.00;;;9.00;;
33794;SDS011;51430;52.242;21.118;2023-01-29T03:37:40;10.00;;;9.00;;
33794;SDS011;51430;52.242;21.118;2023-01-29T03:40:51;9.90;;;8.90;;
33794;SDS011;51430;52.242;21.118;2023-01-29T03:47:26;10.90;;;9.30;;
33794;SDS011;51430;52.242;21.118;2023-01-29T03:50:38;10.00;;;8.40;;
33794;SDS011;51430;52.242;21.118;2023-01-29T03:56:45;10.40;;;8.70;;
33794;SDS011;51430;52.242;21.118;2023-01-29T04:09:22;11.40;;;9.30;;
33794;SDS011;51430;52.242;21.118;2023-01-29T04:12:27;11.10;;;9.10;;
33794;SDS011;51430;52.242;21.118;2023-01-29T04:15:21;10.20;;;9.00;;
33794;SDS011;51430;52.242;21.118;2023-01-29T04:18:10;10.60;;;9.00;;
33794;SDS011;51430;52.242;21.118;2023-01-29T04:20:57;10.50;;;9.00;;
33794;SDS011;51430;52.242;21.118;2023-01-29T04:23:46;10.80;;;9.60;;
33794;SDS011;51430;52.242;21.118;2023-01-29T04:29:56;10.80;;;8.60;;
33794;SDS011;51430;52.242;21.118;2023-01-29T04:35:58;10.20;;;8.50;;
33794;SDS011;51430;52.242;21.118;2023-01-29T04:39:14;10.60;;;8.30;;
33794;SDS011;51430;52.242;21.118;2023-01-29T04:42:22;9.80;;;8.80;;
33794;SDS011;51430;52.242;21.118;2023-01-29T04:48:31;9.60;;;8.60;;
33794;SDS011;51430;52.242;21.118;2023-01-29T04:51:33;10.20;;;8.40;;
33794;SDS011;51430;52.242;21.118;2023-01-29T04:57:52;9.60;;;8.00;;
33794;SDS011;51430;52.242;21.118;2023-01-29T05:00:52;9.50;;;8.50;;
33794;SDS011;51430;52.242;21.118;2023-01-29T05:03:40;10.00;;;8.90;;
33794;SDS011;51430;52.242;21.118;2023-01-29T05:06:30;9.20;;;8.30;;
33794;SDS011;51430;52.242;21.118;2023-01-29T05:09:17;9.10;;;8.00;;
33794;SDS011;51430;52.242;21.118;2023-01-29T05:12:06;10.20;;;8.60;;
33794;SDS011;51430;52.242;21.118;2023-01-29T05:14:55;9.40;;;8.50;;
33794;SDS011;51430;52.242;21.118;2023-01-29T05:17:47;9.40;;;8.20;;
33794;SDS011;51430;52.242;21.118;2023-01-29T05:20:35;10.00;;;8.70;;
33794;SDS011;51430;52.242;21.118;2023-01-29T05:23:24;9.50;;;8.50;;
33794;SDS011;51430;52.242;21.118;2023-01-29T05:26:11;9.90;;;8.80;;
33794;SDS011;51430;52.242;21.118;2023-01-29T05:29:16;10.10;;;8.70;;
33794;SDS011;51430;52.242;21.118;2023-01-29T05:32:03;10.20;;;9.00;;
33794;SDS011;51430;52.242;21.118;2023-01-29T05:34:50;10.70;;;9.10;;
33794;SDS011;51430;52.242;21.118;2023-01-29T05:37:37;10.80;;;8.70;;
33794;SDS011;51430;52.242;21.118;2023-01-29T05:40:25;10.60;;;9.20;;
33794;SDS011;51430;52.242;21.118;2023-01-29T05:43:13;10.10;;;9.00;;
33794;SDS011;51430;52.242;21.118;2023-01-29T05:46:02;9.90;;;8.90;;
33794;SDS011;51430;52.242;21.118;2023-01-29T05:48:51;9.80;;;8.80;;
33794;SDS011;51430;52.242;21.118;2023-01-29T05:51:38;11.70;;;9.40;;
33794;SDS011;51430;52.242;21.118;2023-01-29T05:54:24;10.50;;;9.40;;
33794;SDS011;51430;52.242;21.118;2023-01-29T05:57:11;10.60;;;9.50;;
33794;SDS011;51430;52.242;21.118;2023-01-29T05:59:57;10.90;;;9.70;;
33794;SDS011;51430;52.242;21.118;2023-01-29T06:02:44;12.00;;;9.70;;
33794;SDS011;51430;52.242;21.118;2023-01-29T06:05:31;11.50;;;9.80;;
33794;SDS011;51430;52.242;21.118;2023-01-29T06:08:18;12.60;;;10.20;;
33794;SDS011;51430;52.242;21.118;2023-01-29T06:11:09;11.20;;;9.70;;
33794;SDS011;51430;52.242;21.118;2023-01-29T06:13:57;11.40;;;9.70;;
33794;SDS011;51430;52.242;21.118;2023-01-29T06:16:43;11.60;;;10.00;;
33794;SDS011;51430;52.242;21.118;2023-01-29T06:19:30;13.40;;;10.30;;
33794;SDS011;51430;52.242;21.118;2023-01-29T06:22:17;13.30;;;9.80;;
33794;SDS011;51430;52.242;21.118;2023-01-29T06:25:03;11.50;;;10.20;;
33794;SDS011;51430;52.242;21.118;2023-01-29T06:27:50;10.80;;;9.50;;
33794;SDS011;51430;52.242;21.118;2023-01-29T06:30:37;12.60;;;10.10;;
33794;SDS011;51430;52.242;21.118;2023-01-29T06:33:24;12.60;;;10.20;;
33794;SDS011;51430;52.242;21.118;2023-01-29T06:36:10;11.40;;;9.90;;
33794;SDS011;51430;52.242;21.118;2023-01-29T06:38:57;11.70;;;9.50;;
33794;SDS011;51430;52.242;21.118;2023-01-29T06:41:44;11.70;;;10.40;;
33794;SDS011;51430;52.242;21.118;2023-01-29T06:44:31;12.50;;;10.50;;
33794;SDS011;51430;52.242;21.118;2023-01-29T06:47:19;10.80;;;9.70;;
33794;SDS011;51430;52.242;21.118;2023-01-29T06:50:05;12.20;;;10.40;;
33794;SDS011;51430;52.242;21.118;2023-01-29T06:52:52;11.60;;;10.40;;
33794;SDS011;51430;52.242;21.118;2023-01-29T06:55:39;12.10;;;10.50;;
33794;SDS011;51430;52.242;21.118;2023-01-29T06:58:26;11.60;;;9.90;;
33794;SDS011;51430;52.242;21.118;2023-01-29T07:01:13;12.60;;;10.50;;
33794;SDS011;51430;52.242;21.118;2023-01-29T07:04:20;11.90;;;10.30;;
33794;SDS011;51430;52.242;21.118;2023-01-29T07:07:07;13.90;;;10.60;;
33794;SDS011;51430;52.242;21.118;2023-01-29T07:09:58;12.60;;;11.20;;
33794;SDS011;51430;52.242;21.118;2023-01-29T07:12:45;12.20;;;10.90;;
33794;SDS011;51430;52.242;21.118;2023-01-29T07:15:31;11.20;;;10.00;;
33794;SDS011;51430;52.242;21.118;2023-01-29T07:18:18;12.00;;;10.40;;
33794;SDS011;51430;52.242;21.118;2023-01-29T07:21:05;12.20;;;10.30;;
33794;SDS011;51430;52.242;21.118;2023-01-29T07:23:58;13.00;;;10.70;;
33794;SDS011;51430;52.242;21.118;2023-01-29T07:26:44;13.20;;;10.40;;
33794;SDS011;51430;52.242;21.118;2023-01-29T07:29:31;12.70;;;10.50;;
33794;SDS011;51430;52.242;21.118;2023-01-29T07:32:17;12.20;;;10.70;;
33794;SDS011;51430;52.242;21.118;2023-01-29T07:35:06;13.70;;;10.40;;
33794;SDS011;51430;52.242;21.118;2023-01-29T07:37:52;11.80;;;9.90;;
33794;SDS011;51430;52.242;21.118;2023-01-29T07:44:19;11.40;;;9.70;;
33794;SDS011;51430;52.242;21.118;2023-01-29T07:47:05;12.10;;;10.10;;
33794;SDS011;51430;52.242;21.118;2023-01-29T07:50:28;11.00;;;9.00;;
33794;SDS011;51430;52.242;21.118;2023-01-29T07:53:13;13.10;;;9.80;;
33794;SDS011;51430;52.242;21.118;2023-01-29T07:56:01;12.50;;;10.30;;
33794;SDS011;51430;52.242;21.118;2023-01-29T07:58:47;12.00;;;10.60;;
33794;SDS011;51430;52.242;21.118;2023-01-29T08:01:32;11.60;;;10.40;;
33794;SDS011;51430;52.242;21.118;2023-01-29T08:04:17;11.20;;;10.00;;
33794;SDS011;51430;52.242;21.118;2023-01-29T08:07:02;12.50;;;9.60;;
33794;SDS011;51430;52.242;21.118;2023-01-29T08:09:48;12.70;;;10.40;;
33794;SDS011;51430;52.242;21.118;2023-01-29T08:12:33;11.40;;;10.30;;
33794;SDS011;51430;52.242;21.118;2023-01-29T08:15:18;10.60;;;9.40;;
33794;SDS011;51430;52.242;21.118;2023-01-29T08:18:03;13.00;;;10.30;;
33794;SDS011;51430;52.242;21.118;2023-01-29T08:20:52;11.50;;;10.30;;
33794;SDS011;51430;52.242;21.118;2023-01-29T08:23:38;11.30;;;10.10;;
33794;SDS011;51430;52.242;21.118;2023-01-29T08:26:23;12.00;;;10.40;;
33794;SDS011;51430;52.242;21.118;2023-01-29T08:33:37;12.70;;;10.00;;
33794;SDS011;51430;52.242;21.118;2023-01-29T08:36:38;11.70;;;8.60;;
33794;SDS011;51430;52.242;21.118;2023-01-29T08:39:25;12.00;;;10.00;;
33794;SDS011;51430;52.242;21.118;2023-01-29T08:42:12;12.40;;;10.10;;
33794;SDS011;51430;52.242;21.118;2023-01-29T08:44:59;12.10;;;9.90;;
33794;SDS011;51430;52.242;21.118;2023-01-29T08:47:46;11.70;;;9.80;;
33794;SDS011;51430;52.242;21.118;2023-01-29T08:50:43;11.80;;;8.90;;
33794;SDS011;51430;52.242;21.118;2023-01-29T08:54:47;11.30;;;8.90;;
33794;SDS011;51430;52.242;21.118;2023-01-29T08:58:35;12.80;;;9.20;;
33794;SDS011;51430;52.242;21.118;2023-01-29T09:01:57;11.00;;;8.70;;
33794;SDS011;51430;52.242;21.118;2023-01-29T09:05:52;13.60;;;9.10;;
33794;SDS011;51430;52.242;21.118;2023-01-29T09:09:52;11.20;;;8.70;;
33794;SDS011;51430;52.242;21.118;2023-01-29T09:19:24;12.00;;;9.00;;
33794;SDS011;51430;52.242;21.118;2023-01-29T09:33:48;11.80;;;9.10;;
33794;SDS011;51430;52.242;21.118;2023-01-29T09:36:34;11.20;;;10.10;;
33794;SDS011;51430;52.242;21.118;2023-01-29T09:39:21;13.00;;;10.70;;
33794;SDS011;51430;52.242;21.118;2023-01-29T09:45:04;11.50;;;10.30;;
33794;SDS011;51430;52.242;21.118;2023-01-29T09:48:10;13.10;;;9.80;;
33794;SDS011;51430;52.242;21.118;2023-01-29T09:50:59;12.60;;;10.60;;
33794;SDS011;51430;52.242;21.118;2023-01-29T09:57:59;13.00;;;9.40;;
33794;SDS011;51430;52.242;21.118;2023-01-29T10:02:57;13.30;;;9.00;;
33794;SDS011;51430;52.242;21.118;2023-01-29T10:10:59;13.80;;;8.30;;
33794;SDS011;51430;52.242;21.118;2023-01-29T10:25:38;10.20;;;8.30;;
33794;SDS011;51430;52.242;21.118;2023-01-29T10:39:18;11.50;;;8.70;;
33794;SDS011;51430;52.242;21.118;2023-01-29T11:00:44;13.60;;;9.70;;
33794;SDS011;51430;52.242;21.118;2023-01-29T11:04:42;11.30;;;9.90;;
33794;SDS011;51430;52.242;21.118;2023-01-29T11:12:48;13.10;;;10.10;;
33794;SDS011;51430;52.242;21.118;2023-01-29T11:16:26;16.30;;;10.60;;
33794;SDS011;51430;52.242;21.118;2023-01-29T11:19:43;15.80;;;11.20;;
33794;SDS011;51430;52.242;21.118;2023-01-29T11:24:14;15.40;;;10.80;;
33794;SDS011;51430;52.242;21.118;2023-01-29T11:27:44;14.20;;;11.40;;
33794;SDS011;51430;52.242;21.118;2023-01-29T11:30:59;14.50;;;10.90;;
33794;SDS011;51430;52.242;21.118;2023-01-29T11:45:48;14.50;;;11.10;;
33794;SDS011;51430;52.242;21.118;2023-01-29T11:48:58;12.40;;;10.20;;
33794;SDS011;51430;52.242;21.118;2023-01-29T11:52:38;14.40;;;10.60;;
33794;SDS011;51430;52.242;21.118;2023-01-29T11:56:42;13.50;;;11.00;;
33794;SDS011;51430;52.242;21.118;2023-01-29T11:59:48;14.50;;;10.50;;
33794;SDS011;51430;52.242;21.118;2023-01-29T12:02:41;15.80;;;12.80;;
33794;SDS011;51430;52.242;21.118;2023-01-29T12:05:31;15.20;;;13.20;;
33794;SDS011;51430;52.242;21.118;2023-01-29T12:08:18;14.00;;;12.00;;
33794;SDS011;51430;52.242;21.118;2023-01-29T12:11:09;14.20;;;12.60;;
33794;SDS011;51430;52.242;21.118;2023-01-29T12:14:28;14.70;;;12.20;;
33794;SDS011;51430;52.242;21.118;2023-01-29T12:17:19;15.40;;;13.30;;
33794;SDS011;51430;52.242;21.118;2023-01-29T12:20:13;15.20;;;13.50;;
33794;SDS011;51430;52.242;21.118;2023-01-29T12:26:37;15.80;;;14.10;;
33794;SDS011;51430;52.242;21.118;2023-01-29T12:29:36;16.20;;;14.00;;
33794;SDS011;51430;52.242;21.118;2023-01-29T12:32:31;16.20;;;14.50;;
33794;SDS011;51430;52.242;21.118;2023-01-29T12:44:15;19.20;;;16.10;;
33794;SDS011;51430;52.242;21.118;2023-01-29T12:47:06;17.80;;;15.50;;
33794;SDS011;51430;52.242;21.118;2023-01-29T12:50:21;18.80;;;16.30;;
33794;SDS011;51430;52.242;21.118;2023-01-29T12:56:04;18.80;;;16.80;;
33794;SDS011;51430;52.242;21.118;2023-01-29T12:58:56;17.40;;;15.70;;
33794;SDS011;51430;52.242;21.118;2023-01-29T13:01:53;18.40;;;16.40;;
33794;SDS011;51430;52.242;21.118;2023-01-29T13:04:46;18.70;;;16.50;;
33794;SDS011;51430;52.242;21.118;2023-01-29T13:07:41;18.70;;;16.80;;
33794;SDS011;51430;52.242;21.118;2023-01-29T13:10:36;19.20;;;16.60;;
33794;SDS011;51430;52.242;21.118;2023-01-29T13:13:30;20.10;;;17.30;;
33794;SDS011;51430;52.242;21.118;2023-01-29T13:16:24;19.70;;;17.00;;
33794;SDS011;51430;52.242;21.118;2023-01-29T13:19:23;20.20;;;17.70;;
33794;SDS011;51430;52.242;21.118;2023-01-29T13:22:25;19.80;;;17.20;;
33794;SDS011;51430;52.242;21.118;2023-01-29T13:25:17;20.00;;;17.90;;
33794;SDS011;51430;52.242;21.118;2023-01-29T13:28:06;20.20;;;18.10;;
33794;SDS011;51430;52.242;21.118;2023-01-29T13:31:11;20.40;;;18.20;;
33794;SDS011;51430;52.242;21.118;2023-01-29T13:37:01;19.90;;;17.90;;
33794;SDS011;51430;52.242;21.118;2023-01-29T13:39:54;20.70;;;18.50;;
33794;SDS011;51430;52.242;21.118;2023-01-29T13:42:46;21.80;;;19.50;;
33794;SDS011;51430;52.242;21.118;2023-01-29T13:45:40;22.10;;;19.70;;
33794;SDS011;51430;52.242;21.118;2023-01-29T13:48:30;21.30;;;19.10;;
33794;SDS011;51430;52.242;21.118;2023-01-29T13:51:18;22.50;;;19.90;;
33794;SDS011;51430;52.242;21.118;2023-01-29T13:54:14;22.20;;;19.90;;
33794;SDS011;51430;52.242;21.118;2023-01-29T13:57:17;19.90;;;17.80;;
33794;SDS011;51430;52.242;21.118;2023-01-29T14:09:29;22.30;;;19.50;;
33794;SDS011;51430;52.242;21.118;2023-01-29T14:15:20;21.70;;;17.20;;
33794;SDS011;51430;52.242;21.118;2023-01-29T14:19:19;19.80;;;16.60;;
33794;SDS011;51430;52.242;21.118;2023-01-29T14:23:43;23.00;;;17.60;;
33794;SDS011;51430;52.242;21.118;2023-01-29T14:42:33;26.50;;;18.80;;
33794;SDS011;51430;52.242;21.118;2023-01-29T14:45:51;24.90;;;18.70;;
33794;SDS011;51430;52.242;21.118;2023-01-29T15:00:37;23.50;;;19.40;;
33794;SDS011;51430;52.242;21.118;2023-01-29T15:30:21;25.30;;;20.50;;
33794;SDS011;51430;52.242;21.118;2023-01-29T15:43:57;23.30;;;19.50;;
33794;SDS011;51430;52.242;21.118;2023-01-29T16:11:50;20.90;;;17.20;;
33794;SDS011;51430;52.242;21.118;2023-01-29T16:15:27;21.20;;;16.40;;
33794;SDS011;51430;52.242;21.118;2023-01-29T16:57:23;31.40;;;23.30;;
33794;SDS011;51430;52.242;21.118;2023-01-29T17:00:39;28.80;;;22.50;;
33794;SDS011;51430;52.242;21.118;2023-01-29T17:18:38;29.90;;;22.90;;
33794;SDS011;51430;52.242;21.118;2023-01-29T17:21:27;38.90;;;30.00;;
33794;SDS011;51430;52.242;21.118;2023-01-29T17:24:15;43.00;;;31.80;;
33794;SDS011;51430;52.242;21.118;2023-01-29T17:27:02;44.20;;;32.40;;
33794;SDS011;51430;52.242;21.118;2023-01-29T17:29:48;45.10;;;33.00;;
33794;SDS011;51430;52.242;21.118;2023-01-29T17:34:09;33.90;;;24.50;;
33794;SDS011;51430;52.242;21.118;2023-01-29T17:36:57;38.80;;;31.10;;
33794;SDS011;51430;52.242;21.118;2023-01-29T17:43:13;38.70;;;31.80;;
33794;SDS011;51430;52.242;21.118;2023-01-29T17:46:03;40.00;;;33.40;;
33794;SDS011;51430;52.242;21.118;2023-01-29T17:49:09;37.80;;;25.70;;
33794;SDS011;51430;52.242;21.118;2023-01-29T17:52:21;42.00;;;33.40;;
33794;SDS011;51430;52.242;21.118;2023-01-29T17:55:11;40.90;;;33.90;;
33794;SDS011;51430;52.242;21.118;2023-01-29T17:57:58;39.60;;;34.10;;
33794;SDS011;51430;52.242;21.118;2023-01-29T18:03:10;35.60;;;27.10;;
33794;SDS011;51430;52.242;21.118;2023-01-29T18:06:48;35.20;;;27.00;;
33794;SDS011;51430;52.242;21.118;2023-01-29T18:21:28;30.20;;;25.30;;
33794;SDS011;51430;52.242;21.118;2023-01-29T18:25:37;31.20;;;24.60;;
33794;SDS011;51430;52.242;21.118;2023-01-29T18:29:22;32.70;;;24.40;;
33794;SDS011;51430;52.242;21.118;2023-01-29T18:43:15;33.10;;;24.90;;
33794;SDS011;51430;52.242;21.118;2023-01-29T18:46:02;31.40;;;28.00;;
33794;SDS011;51430;52.242;21.118;2023-01-29T18:48:50;32.50;;;29.00;;
33794;SDS011;51430;52.242;21.118;2023-01-29T18:51:39;33.70;;;29.50;;
33794;SDS011;51430;52.242;21.118;2023-01-29T18:56:22;30.20;;;24.60;;
33794;SDS011;51430;52.242;21.118;2023-01-29T19:00:11;31.80;;;24.90;;
33794;SDS011;51430;52.242;21.118;2023-01-29T19:02:57;33.60;;;28.90;;
33794;SDS011;51430;52.242;21.118;2023-01-29T19:05:43;33.90;;;29.90;;
33794;SDS011;51430;52.242;21.118;2023-01-29T19:08:29;32.10;;;28.60;;
33794;SDS011;51430;52.242;21.118;2023-01-29T19:11:15;33.60;;;28.80;;
33794;SDS011;51430;52.242;21.118;2023-01-29T19:14:01;32.10;;;28.30;;
33794;SDS011;51430;52.242;21.118;2023-01-29T19:16:46;34.20;;;29.50;;
33794;SDS011;51430;52.242;21.118;2023-01-29T19:19:31;36.30;;;30.50;;
33794;SDS011;51430;52.242;21.118;2023-01-29T19:22:17;35.20;;;29.00;;
33794;SDS011;51430;52.242;21.118;2023-01-29T19:26:25;33.20;;;25.60;;
33794;SDS011;51430;52.242;21.118;2023-01-29T19:29:12;36.80;;;30.70;;
33794;SDS011;51430;52.242;21.118;2023-01-29T19:31:59;37.90;;;31.40;;
33794;SDS011;51430;52.242;21.118;2023-01-29T19:34:46;36.60;;;31.00;;
33794;SDS011;51430;52.242;21.118;2023-01-29T19:37:33;35.30;;;30.10;;
33794;SDS011;51430;52.242;21.118;2023-01-29T19:51:15;31.50;;;25.40;;
33794;SDS011;51430;52.242;21.118;2023-01-29T19:54:14;32.90;;;23.70;;
33794;SDS011;51430;52.242;21.118;2023-01-29T20:09:04;36.70;;;26.20;;
33794;SDS011;51430;52.242;21.118;2023-01-29T20:15:51;34.90;;;24.30;;
33794;SDS011;51430;52.242;21.118;2023-01-29T20:19:20;32.90;;;24.50;;
33794;SDS011;51430;52.242;21.118;2023-01-29T20:33:20;33.90;;;24.20;;
33794;SDS011;51430;52.242;21.118;2023-01-29T20:36:35;33.70;;;24.00;;
33794;SDS011;51430;52.242;21.118;2023-01-29T20:50:28;31.40;;;24.00;;
33794;SDS011;51430;52.242;21.118;2023-01-29T20:53:27;32.50;;;22.20;;
33794;SDS011;51430;52.242;21.118;2023-01-29T20:57:22;31.40;;;22.30;;
33794;SDS011;51430;52.242;21.118;2023-01-29T21:11:47;26.90;;;22.00;;
33794;SDS011;51430;52.242;21.118;2023-01-29T21:14:34;30.10;;;25.40;;
33794;SDS011;51430;52.242;21.118;2023-01-29T21:17:25;32.10;;;26.40;;
33794;SDS011;51430;52.242;21.118;2023-01-29T21:20:14;30.60;;;25.80;;
33794;SDS011;51430;52.242;21.118;2023-01-29T21:24:53;29.40;;;22.80;;
33794;SDS011;51430;52.242;21.118;2023-01-29T21:28:26;31.70;;;22.60;;
33794;SDS011;51430;52.242;21.118;2023-01-29T21:42:27;32.60;;;23.10;;
33794;SDS011;51430;52.242;21.118;2023-01-29T21:45:53;29.30;;;21.60;;
33794;SDS011;51430;52.242;21.118;2023-01-29T21:49:43;28.70;;;22.50;;
33794;SDS011;51430;52.242;21.118;2023-01-29T21:53:02;28.90;;;22.60;;
33794;SDS011;51430;52.242;21.118;2023-01-29T21:56:38;31.50;;;23.10;;
33794;SDS011;51430;52.242;21.118;2023-01-29T22:00:38;30.60;;;23.90;;
33794;SDS011;51430;52.242;21.118;2023-01-29T22:04:16;31.20;;;23.60;;
33794;SDS011;51430;52.242;21.118;2023-01-29T22:08:15;32.40;;;24.00;;
33794;SDS011;51430;52.242;21.118;2023-01-29T22:11:08;36.00;;;30.60;;
33794;SDS011;51430;52.242;21.118;2023-01-29T22:13:53;35.60;;;29.80;;
33794;SDS011;51430;52.242;21.118;2023-01-29T22:16:38;35.20;;;30.40;;
33794;SDS011;51430;52.242;21.118;2023-01-29T22:25:28;34.10;;;24.70;;
33794;SDS011;51430;52.242;21.118;2023-01-29T22:29:30;32.40;;;24.90;;
33794;SDS011;51430;52.242;21.118;2023-01-29T22:33:27;35.10;;;25.90;;
33794;SDS011;51430;52.242;21.118;2023-01-29T22:37:22;34.50;;;26.30;;
33794;SDS011;51430;52.242;21.118;2023-01-29T22:41:39;31.80;;;23.50;;
33794;SDS011;51430;52.242;21.118;2023-01-29T22:44:24;34.90;;;30.30;;
33794;SDS011;51430;52.242;21.118;2023-01-29T22:47:09;36.60;;;30.40;;
33794;SDS011;51430;52.242;21.118;2023-01-29T22:49:55;35.40;;;31.10;;
33794;SDS011;51430;52.242;21.118;2023-01-29T22:52:40;34.30;;;30.30;;
33794;SDS011;51430;52.242;21.118;2023-01-29T22:57:49;33.50;;;24.80;;
33794;SDS011;51430;52.242;21.118;2023-01-29T23:01:47;33.20;;;24.10;;
33794;SDS011;51430;52.242;21.118;2023-01-29T23:06:05;29.00;;;23.40;;
33794;SDS011;51430;52.242;21.118;2023-01-29T23:09:23;32.30;;;25.10;;
33794;SDS011;51430;52.242;21.118;2023-01-29T23:13:19;33.20;;;24.70;;
33794;SDS011;51430;52.242;21.118;2023-01-29T23:17:18;32.60;;;25.60;;
33794;SDS011;51430;52.242;21.118;2023-01-29T23:21:13;32.00;;;24.90;;
33794;SDS011;51430;52.242;21.118;2023-01-29T23:25:10;34.50;;;25.30;;
33794;SDS011;51430;52.242;21.118;2023-01-29T23:27:57;34.90;;;29.90;;
33794;SDS011;51430;52.242;21.118;2023-01-29T23:30:44;32.60;;;24.50;;
33794;SDS011;51430;52.242;21.118;2023-01-29T23:35:03;31.30;;;24.00;;
33794;SDS011;51430;52.242;21.118;2023-01-29T23:38:39;31.20;;;23.60;;
33794;SDS011;51430;52.242;21.118;2023-01-29T23:41:24;33.00;;;28.80;;
33794;SDS011;51430;52.242;21.118;2023-01-29T23:44:09;33.10;;;29.50;;
33794;SDS011;51430;52.242;21.118;2023-01-29T23:50:06;31.90;;;28.50;;
33794;SDS011;51430;52.242;21.118;2023-01-29T23:52:52;31.20;;;27.90;;
33794;SDS011;51430;52.242;21.118;2023-01-29T23:55:37;32.20;;;27.30;;
33794;SDS011;51430;52.242;21.118;2023-01-29T23:58:22;30.00;;;26.80;;
